Time;durP1;ratioP1;P1;durP2;ratioP2;P2;SDS_P1;SDS_P2;PMS_P1;PMS_P2;Temp;Humidity;BMP_temperature;BMP_pressure;BME280_temperature;BME280_humidity;BME280_pressure;Samples;Min_cycle;Max_cycle;Signal;HPM_P1;HPM_P2
2023/11/24 00:07:35;;;;;;;;;;;;;;;;;;;;;
2023/11/24 00:19:31;;;;;;;11.30;2.00;;;;;;;5.79;100.00;98523.92;223445;1265;139456;-88
2023/11/24 00:31:33;;;;;;;5.00;0.90;;;;;;;5.71;100.00;98589.80;223875;1265;220031;-89
2023/11/24 00:37:34;;;;;;;5.30;1.40;;;;;;;5.52;100.00;98569.52;223355;1265;139350;-87
2023/11/24 00:43:27;;;;;;;;;;;;;;;;;;;;;
2023/11/24 00:49:28;;;;;;;12.90;1.50;;;;;;;5.28;100.00;98558.88;223411;1264;139521;-88
2023/11/24 00:55:54;;;;;;;9.90;1.60;;;;;;;5.21;100.00;98560.03;224126;1265;138415;-87
2023/11/24 01:01:29;;;;;;;9.80;1.80;;;;;;;5.14;100.00;98564.77;223831;1266;139207;-87
2023/11/24 01:07:30;;;;;;;17.90;2.00;;;;;;;5.10;100.00;98570.05;223428;1265;139545;-86
2023/11/24 01:13:32;;;;;;;19.80;2.30;;;;;;;5.07;100.00;98555.31;223979;1265;138624;-86
2023/11/24 01:19:17;;;;;;;;;;;;;;;;;;;;;
2023/11/24 01:25:19;;;;;;;10.50;1.70;;;;;;;5.10;100.00;98545.59;224068;1266;138452;-88
2023/11/24 01:31:19;;;;;;;;;;;;;;;;;;;;;
2023/11/24 01:37:19;;;;;;;;;;;;;;;;;;;;;
2023/11/24 01:43:19;;;;;;;;;;;;;;;;;;;;;
2023/11/24 01:49:14;;;;;;;;;;;;;;;;;;;;;
2023/11/24 01:55:15;;;;;;;;;;;;;;;;;;;;;
2023/11/24 02:01:17;;;;;;;9.90;1.80;;;;;;;4.80;100.00;98547.75;223439;1265;138880;-89
2023/11/24 02:07:18;;;;;;;14.60;1.80;;;;;;;4.77;100.00;98540.58;223618;1265;139156;-93
2023/11/24 02:13:20;;;;;;;16.90;1.90;;;;;;;4.74;100.00;98544.63;224018;1265;138446;-91
2023/11/24 02:19:21;;;;;;;9.90;1.70;;;;;;;4.73;100.00;98550.00;223304;1264;139368;-91
2023/11/24 02:25:22;;;;;;;10.50;1.50;;;;;;;4.72;100.00;98543.37;224028;1265;138282;-91
2023/11/24 02:31:11;;;;;;;;;;;;;;;;;;;;;
2023/11/24 02:43:15;;;;;;;4.60;1.50;;;;;;;4.54;100.00;98556.05;224133;1265;138713;-90
2023/11/24 02:48:59;;;;;;;12.00;1.80;;;;;;;4.46;100.00;98560.68;223495;1265;139126;-89
2023/11/24 02:54:58;;;;;;;;;;;;;;;;;;;;;
2023/11/24 03:01:02;;;;;;;13.60;2.00;;;;;;;4.21;100.00;98560.53;223574;1266;138968;-93
2023/11/24 03:07:07;;;;;;;8.10;1.60;;;;;;;4.09;100.00;98559.99;223624;1265;138946;-89
2023/11/24 03:13:09;;;;;;;12.00;1.60;;;;;;;3.98;100.00;98558.75;224101;1265;138461;-91
2023/11/24 03:19:10;;;;;;;16.10;1.90;;;;;;;3.87;100.00;98556.42;223304;1265;139972;-88
2023/11/24 03:30:44;;;;;;;;;;;;;;;;;;;;;
2023/11/24 03:36:46;;;;;;;10.50;2.00;;;;;;;3.60;100.00;98547.42;223424;1264;139512;-89
2023/11/24 03:42:47;;;;;;;17.30;2.70;;;;;;;3.53;100.00;98550.08;223998;1266;139381;-86
2023/11/24 03:48:50;;;;;;;9.30;1.70;;;;;;;3.48;100.00;98543.66;223675;1265;140323;-87
2023/11/24 03:54:51;;;;;;;15.50;2.80;;;;;;;3.42;100.00;98533.98;224119;1265;138741;-92
2023/11/24 04:00:51;;;;;;;13.30;1.70;;;;;;;3.41;100.00;98529.23;223528;1266;139327;-90
2023/11/24 04:06:52;;;;;;;16.60;2.10;;;;;;;3.39;100.00;98529.45;223542;1265;138782;-91
2023/11/24 04:12:54;;;;;;;19.50;2.30;;;;;;;3.39;100.00;98525.95;224122;1266;138760;-87
2023/11/24 04:19:13;;;;;;;;;;;;;;;;;;;;;
2023/11/24 04:25:28;;;;;;;14.70;2.70;;;;;;;3.39;100.00;98532.64;224166;1266;139213;-87
2023/11/24 04:36:56;;;;;;;;;;;;;;;;;;;;;
2023/11/24 04:42:58;;;;;;;12.70;2.60;;;;;;;3.56;100.00;98527.11;223968;1265;139262;-91
2023/11/24 04:55:26;;;;;;;11.70;2.10;;;;;;;3.66;100.00;98518.95;223931;1266;139311;-90
2023/11/24 05:00:44;;;;;;;12.30;2.10;;;;;;;3.69;100.00;98520.77;223362;1265;139617;-89
2023/11/24 05:06:45;;;;;;;13.60;1.90;;;;;;;3.71;100.00;98523.89;223433;1266;139648;-89
2023/11/24 05:12:53;;;;;;;13.20;2.10;;;;;;;3.71;100.00;98527.54;224072;1267;139314;-88
2023/11/24 05:18:49;;;;;;;12.10;2.60;;;;;;;3.73;100.00;98522.73;223420;1268;139962;-93
2023/11/24 05:24:41;;;;;;;15.70;3.40;;;;;;;3.74;100.00;98525.69;224113;1268;139210;-89
2023/11/24 05:42:47;;;;;;;14.30;2.30;;;;;;;3.67;100.00;98523.22;224074;1266;139358;-91
2023/11/24 05:48:48;;;;;;;10.20;2.10;;;;;;;3.65;100.00;98515.36;223423;1268;139931;-89
2023/11/24 05:54:48;;;;;;;12.80;2.30;;;;;;;3.64;100.00;98511.63;223949;1268;139374;-87
2023/11/24 06:00:49;;;;;;;14.40;3.20;;;;;;;3.63;100.00;98506.72;223427;1268;140607;-89
2023/11/24 06:06:40;;;;;;;;;;;;;;;;;;;;;
2023/11/24 06:12:41;;;;;;;15.60;2.20;;;;;;;3.60;100.00;98519.77;223885;1268;139439;-91
2023/11/24 06:18:34;;;;;;;;;;;;;;;;;;;;;
2023/11/24 06:24:29;;;;;;;;;;;;;;;;;;;;;
2023/11/24 06:36:30;;;;;;;;;;;;;;;;;;;;;
2023/11/24 06:48:35;;;;;;;15.50;2.20;;;;;;;3.49;100.00;98527.20;223436;1266;139535;-91
2023/11/24 06:54:53;;;;;;;10.10;1.70;;;;;;;3.47;100.00;98539.86;224142;1268;139144;-91
2023/11/24 07:00:43;;;;;;;;;;;;;;;;;;;;;
2023/11/24 07:06:44;;;;;;;11.00;2.20;;;;;;;3.44;100.00;98545.18;223468;1268;139357;-88
2023/11/24 07:12:33;;;;;;;10.60;2.70;;;;;;;3.46;100.00;98545.29;223928;1267;139035;-87
2023/11/24 07:18:26;;;;;;;;;;;;;;;;;;;;;
2023/11/24 07:24:28;;;;;;;9.10;1.90;;;;;;;3.54;100.00;98541.70;223976;1267;139096;-86
2023/11/24 07:30:29;;;;;;;10.50;2.00;;;;;;;3.56;100.00;98540.85;223489;1265;139456;-87
2023/11/24 07:36:02;;;;;;;8.40;1.50;;;;;;;3.53;100.00;98549.92;223368;1267;139965;-86
2023/11/24 07:42:03;;;;;;;5.70;1.10;;;;;;;3.45;100.00;98558.94;223971;1265;138560;-87
2023/11/24 07:48:04;;;;;;;8.60;1.40;;;;;;;3.33;100.00;98560.38;223524;1267;139401;-87
2023/11/24 07:54:06;;;;;;;5.90;1.30;;;;;;;3.24;100.00;98561.92;224081;1264;139336;-87
2023/11/24 08:17:43;;;;;;;8.80;1.60;;;;;;;3.39;100.00;98549.26;223308;1267;139243;-83
2023/11/24 08:23:42;;;;;;;8.70;1.60;;;;;;;3.58;100.00;98542.12;223917;1267;138459;-84
2023/11/24 08:29:40;;;;;;;9.60;1.70;;;;;;;3.89;100.00;98538.38;223318;1266;139352;-84
2023/11/24 08:35:14;;;;;;;;;;;;;;;4.20;100.00;98540.31;223892;1265;138510;-85
2023/11/24 08:41:21;;;;;;;15.70;4.50;;;;;;;4.38;100.00;98538.69;223680;1265;125165;-83
2023/11/24 08:47:10;;;;;;;17.80;5.80;;;;;;;4.52;100.00;98539.93;222886;1265;141017;-84
2023/11/24 08:53:05;;;;;;;20.50;6.40;;;;;;;4.72;100.00;98539.55;223891;1265;139266;-84
2023/11/24 08:59:08;;;;;;;10.70;2.30;;;;;;;4.91;100.00;98533.63;223443;1265;139513;-83
2023/11/24 09:05:07;;;;;;;13.80;2.40;;;;;;;5.04;100.00;98526.27;223866;1265;139287;-84
2023/11/24 09:17:00;;;;;;;11.40;2.80;;;;;;;5.32;100.00;98510.65;223441;1265;139447;-83
2023/11/24 09:22:49;;;;;;;7.80;2.20;;;;;;;5.43;100.00;98516.11;223957;1265;138740;-85
2023/11/24 09:28:41;;;;;;;12.40;2.10;;;;;;;5.50;100.00;98512.62;223190;1265;139165;-83
2023/11/24 09:40:32;;;;;;;;;;;;;;;;;;;;;
2023/11/24 09:46:34;;;;;;;17.80;6.10;;;;;;;5.42;100.00;98497.16;223336;1265;139672;-84
2023/11/24 09:52:33;;;;;;;;;;;;;;;;;;;;;
2023/11/24 09:58:35;;;;;;;9.30;2.40;;;;;;;5.21;100.00;98485.25;223271;1265;140476;-84
2023/11/24 10:04:36;;;;;;;13.50;3.10;;;;;;;5.31;100.00;98477.30;223916;1265;138689;-85
2023/11/24 10:10:38;;;;;;;10.30;2.10;;;;;;;5.36;100.00;98470.76;223372;1265;139409;-84
2023/11/24 10:17:03;;;;;;;12.70;2.60;;;;;;;5.46;100.00;98462.27;223251;1266;139476;-84
2023/11/24 10:22:31;;;;;;;7.10;1.60;;;;;;;5.55;100.00;98455.16;223801;1266;138566;-85
2023/11/24 10:28:44;;;;;;;14.00;2.10;;;;;;;5.49;100.00;98451.89;223505;1265;139256;-83
2023/11/24 10:34:18;;;;;;;12.00;1.70;;;;;;;5.41;100.00;98453.53;223983;1265;138607;-83
2023/11/24 10:40:40;;;;;;;13.70;2.20;;;;;;;5.31;100.00;98449.09;223319;1265;139276;-84
2023/11/24 10:46:41;;;;;;;13.90;2.50;;;;;;;5.30;100.00;98445.11;223391;1266;139935;-85
2023/11/24 10:52:41;;;;;;;9.90;2.60;;;;;;;5.32;100.00;98434.06;223967;1265;138814;-85
2023/11/24 10:58:41;;;;;;;9.10;2.00;;;;;;;5.32;100.00;98433.34;223275;1265;139884;-83
2023/11/24 11:04:41;;;;;;;8.80;1.60;;;;;;;5.28;100.00;98431.17;223840;1265;138452;-83
2023/11/24 11:10:47;;;;;;;;;;;;;;;;;;;;;
2023/11/24 11:22:50;;;;;;;10.70;2.40;;;;;;;5.09;100.00;98425.48;223857;1265;138661;-83
2023/11/24 11:28:57;;;;;;;15.30;2.40;;;;;;;5.03;100.00;98418.00;223399;1265;139577;-82
2023/11/24 11:40:59;;;;;;;13.50;3.00;;;;;;;5.10;100.00;98413.10;223270;1265;139957;-83
2023/11/24 11:46:49;;;;;;;;;;;;;;;;;;;;;
2023/11/24 11:52:37;;;;;;;13.50;2.00;;;;;;;5.12;100.00;98415.59;223937;1265;138465;-83
2023/11/24 11:58:38;;;;;;;11.90;3.10;;;;;;;5.04;100.00;98410.91;223463;1265;139679;-82
2023/11/24 12:04:39;;;;;;;12.00;3.50;;;;;;;5.02;100.00;98401.25;223987;1265;139881;-83
2023/11/24 12:10:28;;;;;;;;;;;;;;;;;;;;;
2023/11/24 12:16:28;;;;;;;;;;;;;;;;;;;;;
2023/11/24 12:22:31;;;;;;;12.90;2.70;;;;;;;4.95;100.00;98393.08;223924;1265;139377;-82
2023/11/24 12:28:59;;;;;;;13.10;2.60;;;;;;;4.93;100.00;98390.58;223474;1265;139384;-83
2023/11/24 12:34:41;;;;;;;9.90;2.00;;;;;;;4.95;100.00;98376.57;223765;1265;138579;-82
2023/11/24 12:40:35;;;;;;;14.90;2.70;;;;;;;4.97;100.00;98373.14;223339;1265;139058;-83
2023/11/24 12:46:36;;;;;;;10.80;3.30;;;;;;;5.01;100.00;98369.33;223507;1265;139500;-83
2023/11/24 12:52:30;;;;;;;14.50;2.70;;;;;;;5.05;100.00;98359.75;223912;1265;138641;-82
2023/11/24 12:58:30;;;;;;;12.60;2.40;;;;;;;5.07;100.00;98351.95;223355;1265;139499;-83
2023/11/24 13:04:21;;;;;;;8.40;1.80;;;;;;;5.08;99.87;98345.41;224286;1265;138931;-82
2023/11/24 13:10:22;;;;;;;12.00;3.20;;;;;;;5.11;100.00;98347.36;223354;1265;138364;-83
2023/11/24 13:16:23;;;;;;;11.00;2.40;;;;;;;5.12;100.00;98343.31;223457;1265;139342;-81
2023/11/24 13:22:24;;;;;;;14.00;3.00;;;;;;;5.12;100.00;98333.49;223870;1268;139532;-85
2023/11/24 13:34:28;;;;;;;9.40;1.90;;;;;;;5.02;99.96;98301.41;224011;1264;138696;-82
2023/11/24 13:40:30;;;;;;;9.20;2.20;;;;;;;4.96;99.90;98296.43;223458;1264;139296;-83
2023/11/24 13:46:29;;;;;;;22.40;5.00;;;;;;;4.90;99.23;98295.36;223319;1265;138881;-82
2023/11/24 13:58:26;;;;;;;13.90;2.20;;;;;;;4.72;98.83;98292.64;223166;1265;140368;-82
2023/11/24 14:04:32;;;;;;;15.50;3.00;;;;;;;4.65;98.90;98289.37;223961;1265;138453;-84
2023/11/24 14:10:28;;;;;;;13.70;2.90;;;;;;;4.62;99.66;98289.83;223349;1265;139086;-82
2023/11/24 14:16:29;;;;;;;12.20;2.30;;;;;;;4.58;99.46;98286.70;223407;1265;140175;-83
2023/11/24 14:22:30;;;;;;;8.40;2.80;;;;;;;4.54;99.53;98280.57;223946;1265;138998;-82
2023/11/24 14:28:58;;;;;;;8.60;2.00;;;;;;;4.50;99.43;98279.16;223447;1265;139306;-82
2023/11/24 14:34:34;;;;;;;14.20;3.00;;;;;;;4.45;99.05;98279.71;223833;1265;138588;-81
2023/11/24 14:40:27;;;;;;;;;;;;;;;;;;;;;
2023/11/24 14:46:20;;;;;;;;;;;;;;;;;;;;;
2023/11/24 14:52:23;;;;;;;8.90;2.30;;;;;;;4.32;98.58;98272.86;224164;1265;138830;-83
2023/11/24 14:58:23;;;;;;;9.40;2.30;;;;;;;4.30;99.14;98270.36;223362;1264;139094;-83
2023/11/24 15:04:16;;;;;;;10.60;2.10;;;;;;;4.27;98.77;98264.84;224016;1265;138478;-83
2023/11/24 15:10:05;;;;;;;11.00;2.40;;;;;;;4.25;99.07;98267.70;223183;1268;139681;-80
2023/11/24 15:22:15;;;;;;;8.00;2.30;;;;;;;4.21;99.65;98252.53;224000;1265;105194;-83
2023/11/24 15:28:12;;;;;;;13.90;2.70;;;;;;;4.19;99.50;98254.95;223439;1264;139289;-82
2023/11/24 15:34:11;;;;;;;11.90;3.30;;;;;;;4.15;99.55;98244.98;224050;1264;105372;-82
2023/11/24 15:46:54;;;;;;;12.00;2.40;;;;;;;4.10;100.00;98256.86;222855;1265;139120;-82
2023/11/24 15:52:30;;;;;;;9.70;2.50;;;;;;;4.07;99.95;98252.75;224113;1264;104670;-82
2023/11/24 15:58:32;;;;;;;11.10;2.30;;;;;;;4.05;100.00;98244.11;224068;1264;104212;-84
2023/11/24 16:16:33;;;;;;;;;;;;;;;;;;;;;
2023/11/24 16:22:35;;;;;;;10.40;2.10;;;;;;;4.03;100.00;98240.91;223885;1265;108755;-84
2023/11/24 16:28:34;;;;;;;;;;;;;;;;;;;;;
2023/11/24 16:34:37;;;;;;;13.80;2.50;;;;;;;3.84;100.00;98249.52;224075;1265;109254;-84
2023/11/24 16:40:37;;;;;;;14.90;3.20;;;;;;;3.66;100.00;98245.89;223248;1265;139393;-84
2023/11/24 16:46:38;;;;;;;9.40;2.10;;;;;;;3.51;100.00;98257.02;223215;1265;140043;-84
2023/11/24 16:52:38;;;;;;;12.00;4.10;;;;;;;3.41;100.00;98250.84;223677;1270;108278;-85
2023/11/24 17:04:25;;;;;;;10.30;3.20;;;;;;;3.13;100.00;98255.04;223697;1265;109723;-86
2023/11/24 17:16:20;;;;;;;7.90;2.00;;;;;;;2.77;100.00;98243.42;223015;1265;139262;-85
2023/11/24 17:28:23;;;;;;;6.00;1.70;;;;;;;2.51;100.00;98233.86;223333;1265;139623;-86
2023/11/24 17:34:24;;;;;;;4.10;1.60;;;;;;;2.41;100.00;98235.17;223866;1265;138255;-85
2023/11/24 17:40:15;;;;;;;6.00;2.20;;;;;;;2.33;100.00;98231.70;223244;1265;139276;-86
2023/11/24 17:46:07;;;;;;;10.20;2.20;;;;;;;2.28;100.00;98231.73;223823;1265;138723;-85
2023/11/24 17:52:08;;;;;;;9.70;2.80;;;;;;;2.26;100.00;98229.38;223871;1265;138966;-85
2023/11/24 17:58:08;;;;;;;9.90;2.80;;;;;;;2.24;100.00;98225.34;223300;1265;139340;-85
2023/11/24 18:04:09;;;;;;;9.00;3.10;;;;;;;2.23;100.00;98227.73;223830;1265;139308;-86
2023/11/24 18:09:58;;;;;;;10.20;2.90;;;;;;;2.24;100.00;98233.86;223191;1265;139454;-85
2023/11/24 18:15:30;;;;;;;;;;;;;;;;;;;;;
2023/11/24 18:21:33;;;;;;;11.20;3.00;;;;;;;2.21;100.00;98224.84;223626;1265;138492;-86
2023/11/24 18:27:59;;;;;;;13.80;2.70;;;;;;;2.22;100.00;98220.66;223296;1265;139025;-87
2023/11/24 18:33:35;;;;;;;11.90;3.20;;;;;;;2.23;100.00;98223.24;223637;1265;138785;-86
2023/11/24 18:39:36;;;;;;;10.20;2.90;;;;;;;2.23;100.00;98230.60;223171;1265;139475;-86
2023/11/24 18:45:30;;;;;;;10.10;2.70;;;;;;;2.23;100.00;98229.59;223703;1265;139147;-87
2023/11/24 18:51:32;;;;;;;14.60;3.10;;;;;;;2.22;100.00;98232.30;223390;1265;139673;-88
2023/11/24 18:57:24;;;;;;;;;;;;;;;;;;;;;
2023/11/24 19:03:19;;;;;;;13.40;3.30;;;;;;;2.18;100.00;98230.25;223788;1265;138577;-85
2023/11/24 19:09:20;;;;;;;;;;;;;;;;;;;;;
2023/11/24 19:15:13;;;;;;;15.90;4.10;;;;;;;2.15;100.00;98216.35;223741;1265;138781;-88
2023/11/24 19:27:15;;;;;;;11.40;2.90;;;;;;;2.16;100.00;98210.08;223221;1266;139624;-86
2023/11/24 19:33:16;;;;;;;16.60;3.80;;;;;;;2.18;100.00;98208.16;223781;1265;138706;-85
2023/11/24 19:39:09;;;;;;;;;;;;;;;;;;;;;
2023/11/24 19:51:12;;;;;;;13.00;3.70;;;;;;;2.22;100.00;98210.59;223267;1265;139082;-85
2023/11/24 19:57:16;;;;;;;14.20;3.80;;;;;;;2.25;100.00;98211.08;223222;1265;139801;-85
2023/11/24 20:03:18;;;;;;;11.90;3.30;;;;;;;2.25;100.00;98214.02;223801;1265;138477;-84
2023/11/24 20:09:20;;;;;;;13.80;3.60;;;;;;;2.19;100.00;98219.33;223201;1265;139893;-89
2023/11/24 20:15:19;;;;;;;;;;;;;;;;;;;;;
2023/11/24 20:21:24;;;;;;;;;;;;;;;;;;;;;
2023/11/24 20:27:16;;;;;;;15.70;4.20;;;;;;;2.14;100.00;98211.14;223041;1265;141127;-84
2023/11/24 20:33:02;;;;;;;;;;;;;;;;;;;;;
2023/11/24 20:38:47;;;;;;;;;;;;;;;;;;;;;
2023/11/24 20:44:31;;;;;;;;;;;;;;;;;;;;;
2023/11/24 20:50:17;;;;;;;12.00;4.10;;;;;;;2.08;100.00;98240.70;223331;1265;139315;-85
2023/11/24 20:56:04;;;;;;;12.80;4.10;;;;;;;2.04;100.00;98241.74;223769;1265;138757;-85
2023/11/24 21:01:48;;;;;;;9.40;3.40;;;;;;;1.95;100.00;98242.74;223663;1265;138758;-84
2023/11/24 21:13:49;;;;;;;9.70;4.40;;;;;;;1.87;100.00;98248.23;223735;1265;139125;-84
2023/11/24 21:19:46;;;;;;;11.70;4.00;;;;;;;1.88;100.00;98250.73;223211;1265;139044;-86
2023/11/24 21:25:48;;;;;;;10.10;3.70;;;;;;;1.88;100.00;98261.36;223674;1266;138614;-86
2023/11/24 21:31:13;;;;;;;7.50;3.00;;;;;;;1.88;100.00;98277.61;223610;1266;383392;-86
2023/11/24 21:37:28;;;;;;;6.50;2.70;;;;;;;1.85;100.00;98277.66;223258;1269;139373;-86
2023/11/24 21:43:00;;;;;;;5.50;2.20;;;;;;;1.83;100.00;98279.50;219823;1265;138476;-87
2023/11/24 21:55:03;;;;;;;7.80;2.10;;;;;;;1.83;100.00;98302.97;223808;1265;138485;-89
2023/11/24 22:00:53;;;;;;;5.50;2.30;;;;;;;1.80;100.00;98308.45;223192;1265;139712;-87
2023/11/24 22:06:56;;;;;;;7.50;2.10;;;;;;;1.78;100.00;98309.02;223271;1265;138747;-87
2023/11/24 22:18:55;;;;;;;5.10;1.90;;;;;;;1.77;100.00;98315.23;223234;1265;139777;-89
2023/11/24 22:24:55;;;;;;;7.40;2.20;;;;;;;1.71;100.00;98327.47;223769;1265;138541;-88
2023/11/24 22:37:04;;;;;;;6.00;2.00;;;;;;;1.68;100.00;98330.70;223184;1266;139401;-87
2023/11/24 22:43:04;;;;;;;4.40;1.80;;;;;;;1.67;100.00;98350.20;223626;1265;138926;-88
2023/11/24 22:49:05;;;;;;;4.30;1.90;;;;;;;1.68;100.00;98358.18;223174;1265;139258;-88
2023/11/24 22:55:05;;;;;;;;;;;;;;;;;;;;;
2023/11/24 23:01:08;;;;;;;6.60;2.00;;;;;;;1.66;100.00;98372.41;223190;1266;139247;-88
2023/11/24 23:07:08;;;;;;;5.60;2.10;;;;;;;1.66;100.00;98369.77;223226;1266;139253;-88
2023/11/24 23:13:09;;;;;;;6.20;2.10;;;;;;;1.65;100.00;98379.28;223702;1266;138558;-88
2023/11/24 23:25:10;;;;;;;6.00;2.20;;;;;;;1.60;100.00;98387.05;223971;1265;138539;-89
2023/11/24 23:31:05;;;;;;;7.40;2.50;;;;;;;1.57;100.00;98391.95;223262;1265;138986;-90
2023/11/24 23:37:05;;;;;;;8.30;2.50;;;;;;;1.51;100.00;98397.22;223185;1265;139178;-89
2023/11/24 23:43:05;;;;;;;8.40;3.10;;;;;;;1.49;100.00;98407.27;223782;1265;138923;-89
2023/11/24 23:48:59;;;;;;;5.80;2.70;;;;;;;1.46;100.00;98407.99;223221;1266;138501;-88
2023/11/24 23:54:53;;;;;;;8.30;3.30;;;;;;;1.42;100.00;98413.49;223667;1265;138621;-88
